createdAt,value
2018-01-04T00:02:24.714Z,92.06
2018-01-04T00:04:52.394Z,92.56
2018-01-04T00:07:20.215Z,92.65
2018-01-04T00:09:48.043Z,92.58
2018-01-04T00:12:15.725Z,91.81
2018-01-04T00:14:43.492Z,91.90
2018-01-04T00:17:11.156Z,91.43
2018-01-04T00:19:38.900Z,92.16
2018-01-04T00:22:06.651Z,92.92
2018-01-04T00:24:34.316Z,93.06
2018-01-04T00:27:02.060Z,92.78
2018-01-04T00:29:29.725Z,92.50
2018-01-04T00:31:58.052Z,92.24
2018-01-04T00:34:25.730Z,92.27
2018-01-04T00:36:53.487Z,92.07
2018-01-04T00:39:21.189Z,92.24
2018-01-04T00:41:48.911Z,92.22
2018-01-04T00:44:16.614Z,92.51
2018-01-04T00:46:44.362Z,92.43
2018-01-04T00:49:12.165Z,92.58
2018-01-04T00:51:39.905Z,92.62
2018-01-04T00:54:07.607Z,92.26
2018-01-04T00:56:35.269Z,92.15
2018-01-04T00:59:03.024Z,92.77
2018-01-04T01:01:30.707Z,92.80
2018-01-04T01:03:58.383Z,92.53
2018-01-04T01:06:26.150Z,92.65
2018-01-04T01:08:53.894Z,92.62
2018-01-04T01:11:21.573Z,92.66
2018-01-04T01:13:49.312Z,92.92
2018-01-04T01:16:17.059Z,92.90
2018-01-04T01:18:44.943Z,92.58
2018-01-04T01:21:12.693Z,92.52
2018-01-04T01:23:40.400Z,92.35
2018-01-04T01:26:08.132Z,92.00
2018-01-04T01:28:35.810Z,92.12
2018-01-04T01:31:03.599Z,92.00
2018-01-04T01:33:31.333Z,91.98
2018-01-04T01:35:59.004Z,91.80
2018-01-04T01:38:26.718Z,92.17
2018-01-04T01:40:54.453Z,92.36
2018-01-04T01:43:22.188Z,91.87
2018-01-04T01:45:50.043Z,91.58
2018-01-04T01:48:17.720Z,91.89
2018-01-04T01:50:45.488Z,92.04
2018-01-04T01:53:13.276Z,93.47
2018-01-04T01:55:41.052Z,93.54
2018-01-04T01:58:08.758Z,93.26
2018-01-04T02:00:36.456Z,93.36
2018-01-04T02:03:04.214Z,93.43
2018-01-04T02:05:31.960Z,93.41
2018-01-04T02:07:59.633Z,93.28
2018-01-04T02:10:27.411Z,93.38
2018-01-04T02:12:55.102Z,93.35
2018-01-04T02:15:22.803Z,92.97
2018-01-04T02:17:50.644Z,92.88
2018-01-04T02:20:30.266Z,92.60
2018-01-04T02:23:09.728Z,92.63
2018-01-04T02:25:46.259Z,92.55
2018-01-04T02:28:25.666Z,92.31
2018-01-04T02:31:05.180Z,92.45
2018-01-04T02:33:44.490Z,92.59
2018-01-04T02:36:23.858Z,92.49
2018-01-04T02:42:04.130Z,92.39
2018-01-04T02:44:39.830Z,92.81
2018-01-04T02:47:07.583Z,92.76
2018-01-04T02:49:35.271Z,92.60
2018-01-04T02:52:03.004Z,92.96
2018-01-04T02:54:30.711Z,92.88
2018-01-04T02:56:58.493Z,93.04
2018-01-04T02:59:26.252Z,92.99
2018-01-04T03:01:53.978Z,92.54
2018-01-04T03:04:21.712Z,92.65
2018-01-04T03:06:49.427Z,92.83
2018-01-04T03:09:17.136Z,92.71
2018-01-04T03:11:44.816Z,92.77
2018-01-04T03:14:12.540Z,92.86
2018-01-04T03:16:40.202Z,93.08
2018-01-04T03:19:07.926Z,92.74
2018-01-04T03:21:35.663Z,93.03
2018-01-04T03:24:03.413Z,93.24
2018-01-04T03:26:36.560Z,93.20
2018-01-04T03:29:09.865Z,92.83
2018-01-04T03:31:43.116Z,92.63
2018-01-04T03:34:16.421Z,92.48
2018-01-04T03:36:49.742Z,92.55
2018-01-04T03:39:23.431Z,92.47
2018-01-04T03:41:57.565Z,92.93
2018-01-04T03:47:34.856Z,93.23
2018-01-04T03:50:08.099Z,93.25
2018-01-04T03:52:35.790Z,93.52
2018-01-04T03:55:09.178Z,93.63
2018-01-04T03:57:42.508Z,93.33
2018-01-04T04:00:15.605Z,92.94
2018-01-04T04:02:48.820Z,93.37
2018-01-04T04:05:22.157Z,93.61
2018-01-04T04:07:49.941Z,93.65
2018-01-04T04:10:17.643Z,93.51
2018-01-04T04:12:45.356Z,93.34
2018-01-04T04:15:13.161Z,93.47
2018-01-04T04:17:40.829Z,93.46
2018-01-04T04:20:08.498Z,92.22
2018-01-04T04:22:36.243Z,92.17
2018-01-04T04:25:03.952Z,92.97
2018-01-04T04:27:31.626Z,93.00
2018-01-04T04:29:59.415Z,93.11
2018-01-04T04:32:27.120Z,93.06
2018-01-04T04:34:54.855Z,93.13
2018-01-04T04:37:22.522Z,92.96
2018-01-04T04:39:50.252Z,92.87
2018-01-04T04:42:17.968Z,93.20
2018-01-04T04:44:45.625Z,93.11
2018-01-04T04:47:13.658Z,93.27
2018-01-04T04:49:42.135Z,93.22
2018-01-04T04:52:09.801Z,93.04
2018-01-04T04:54:37.541Z,92.77
2018-01-04T04:57:05.247Z,92.85
2018-01-04T04:59:32.956Z,92.85
2018-01-04T05:02:00.761Z,92.85
2018-01-04T05:04:28.465Z,92.85
2018-01-04T05:06:56.203Z,92.95
2018-01-04T05:09:23.927Z,93.41
2018-01-04T05:11:51.626Z,93.17
2018-01-04T05:14:19.289Z,93.14
2018-01-04T05:16:47.034Z,93.20
2018-01-04T05:19:14.705Z,93.01
2018-01-04T05:21:42.449Z,93.19
2018-01-04T05:24:10.147Z,92.69
2018-01-04T05:26:37.863Z,93.09
2018-01-04T05:29:05.563Z,93.26
2018-01-04T05:31:33.294Z,93.34
2018-01-04T05:34:00.977Z,93.72
2018-01-04T05:36:28.698Z,93.67
2018-01-04T05:38:56.518Z,93.38
2018-01-04T05:41:24.247Z,93.34
2018-01-04T05:43:51.953Z,93.54
2018-01-04T05:46:20.098Z,93.54
2018-01-04T05:48:47.800Z,93.52
2018-01-04T05:51:15.529Z,93.48
2018-01-04T05:53:43.204Z,93.46
2018-01-04T05:56:10.919Z,93.31
2018-01-04T05:58:38.630Z,93.87
2018-01-04T06:01:06.395Z,94.01
2018-01-04T06:03:34.127Z,94.14
2018-01-04T06:06:01.795Z,93.92
2018-01-04T06:08:29.536Z,93.90
2018-01-04T06:10:57.282Z,93.72
2018-01-04T06:13:24.991Z,93.50
2018-01-04T06:15:52.703Z,93.35
2018-01-04T06:18:20.428Z,93.13
2018-01-04T06:20:48.108Z,93.05
2018-01-04T06:23:15.785Z,93.24
2018-01-04T06:25:43.531Z,93.37
2018-01-04T06:28:11.223Z,93.22
2018-01-04T06:30:39.032Z,93.11
2018-01-04T06:33:06.731Z,93.10
2018-01-04T06:35:35.511Z,92.82
2018-01-04T06:38:03.342Z,93.05
2018-01-04T06:40:30.999Z,93.22
2018-01-04T06:42:59.814Z,93.46
2018-01-04T06:45:27.562Z,93.50
2018-01-04T06:47:55.264Z,94.34
2018-01-04T06:50:22.986Z,94.77
2018-01-04T06:52:50.690Z,94.38
2018-01-04T06:55:18.389Z,94.03
2018-01-04T06:57:46.177Z,93.73
2018-01-04T07:00:13.929Z,93.43
2018-01-04T07:02:41.797Z,93.60
2018-01-04T07:05:09.460Z,93.92
2018-01-04T07:07:37.177Z,93.94
2018-01-04T07:10:04.870Z,94.13
2018-01-04T07:12:32.643Z,94.20
2018-01-04T07:15:00.349Z,94.13
2018-01-04T07:17:28.095Z,93.90
2018-01-04T07:19:55.799Z,94.16
2018-01-04T07:22:23.548Z,94.30
2018-01-04T07:24:51.309Z,94.31
2018-01-04T07:27:19.027Z,94.09
2018-01-04T07:29:46.719Z,93.81
2018-01-04T07:32:14.473Z,93.75
2018-01-04T07:34:42.229Z,93.90
2018-01-04T07:37:10.004Z,94.02
2018-01-04T07:39:37.716Z,94.34
2018-01-04T07:42:05.650Z,94.49
2018-01-04T07:44:33.388Z,94.59
2018-01-04T07:47:01.114Z,94.59
2018-01-04T07:49:28.876Z,94.32
2018-01-04T07:51:56.579Z,94.16
2018-01-04T07:54:24.340Z,93.94
2018-01-04T07:56:52.050Z,93.94
2018-01-04T07:59:19.784Z,93.92
2018-01-04T08:01:47.638Z,93.78
2018-01-04T08:04:15.347Z,93.75
2018-01-04T08:06:43.149Z,93.63
2018-01-04T08:09:10.876Z,93.44
2018-01-04T08:11:38.598Z,93.00
2018-01-04T08:14:06.363Z,92.56
2018-01-04T08:16:34.122Z,92.05
2018-01-04T08:19:01.859Z,92.37
2018-01-04T08:21:29.587Z,92.80
2018-01-04T08:23:57.366Z,92.56
2018-01-04T08:26:25.149Z,92.19
2018-01-04T08:28:52.876Z,91.60
2018-01-04T08:31:20.677Z,91.47
2018-01-04T08:33:48.584Z,91.82
2018-01-04T08:36:18.051Z,92.12
2018-01-04T08:38:45.859Z,91.69
2018-01-04T08:41:13.624Z,91.46
2018-01-04T08:43:41.490Z,91.72
2018-01-04T08:46:09.260Z,91.90
2018-01-04T08:48:37.061Z,91.95
2018-01-04T08:51:04.825Z,91.88
2018-01-04T08:53:32.558Z,91.44
2018-01-04T08:56:01.508Z,91.27
2018-01-04T08:58:29.456Z,91.32
2018-01-04T09:00:57.348Z,91.46
2018-01-04T09:03:25.046Z,91.18
2018-01-04T09:05:52.792Z,91.19
2018-01-04T09:08:20.596Z,91.51
2018-01-04T09:10:48.312Z,91.59
2018-01-04T09:13:16.126Z,91.54
2018-01-04T09:15:43.919Z,91.82
2018-01-04T09:18:11.645Z,91.77
2018-01-04T09:20:39.336Z,91.73
2018-01-04T09:23:07.095Z,91.65
2018-01-04T09:25:34.860Z,91.45
2018-01-04T09:28:02.836Z,91.39
2018-01-04T09:30:30.582Z,91.76
2018-01-04T09:32:58.364Z,92.26
2018-01-04T09:35:26.117Z,93.07
2018-01-04T09:37:53.853Z,93.24
2018-01-04T09:40:21.689Z,93.87
2018-01-04T09:42:49.495Z,93.95
2018-01-04T09:45:17.326Z,93.62
2018-01-04T09:47:45.164Z,94.26
2018-01-04T09:50:13.115Z,94.24
2018-01-04T09:52:40.840Z,94.35
2018-01-04T09:55:08.584Z,94.23
2018-01-04T09:57:36.295Z,93.94
2018-01-04T10:00:04.126Z,93.59
2018-01-04T10:02:31.867Z,93.41
2018-01-04T10:05:00.313Z,92.99
2018-01-04T10:07:28.055Z,92.42
2018-01-04T10:09:55.786Z,92.35
2018-01-04T10:12:23.543Z,92.16
2018-01-04T10:14:51.230Z,91.89
2018-01-04T10:17:19.048Z,91.74
2018-01-04T10:19:46.757Z,91.56
2018-01-04T10:22:14.499Z,91.50
2018-01-04T10:24:42.282Z,91.38
2018-01-04T10:27:10.086Z,91.28
2018-01-04T10:29:37.809Z,91.29
2018-01-04T10:32:05.573Z,90.88
2018-01-04T10:34:33.319Z,90.74
2018-01-04T10:37:01.155Z,90.67
2018-01-04T10:39:28.947Z,90.79
2018-01-04T10:41:57.071Z,91.46
2018-01-04T10:44:24.971Z,91.77
2018-01-04T10:46:52.781Z,91.45
2018-01-04T10:49:20.496Z,92.15
2018-01-04T10:51:48.397Z,92.54
2018-01-04T10:54:16.189Z,92.44
2018-01-04T10:56:43.911Z,91.93
2018-01-04T10:59:12.882Z,91.83
2018-01-04T11:01:40.783Z,92.07
2018-01-04T11:04:08.523Z,92.07
2018-01-04T11:06:36.362Z,92.40
2018-01-04T11:09:04.181Z,92.20
2018-01-04T11:11:31.935Z,91.92
2018-01-04T11:13:59.671Z,90.95
2018-01-04T11:16:27.532Z,90.38
2018-01-04T11:18:55.304Z,89.36
2018-01-04T11:21:23.069Z,88.82
2018-01-04T11:23:50.801Z,88.37
2018-01-04T11:26:18.576Z,89.05
2018-01-04T11:28:46.287Z,89.37
2018-01-04T11:31:13.989Z,89.60
2018-01-04T11:33:41.918Z,90.11
2018-01-04T11:36:09.623Z,90.02
2018-01-04T11:38:38.634Z,90.06
2018-01-04T11:41:06.431Z,90.01
2018-01-04T11:43:34.181Z,89.86
2018-01-04T11:46:01.936Z,89.66
2018-01-04T11:48:29.686Z,89.38
2018-01-04T11:50:57.436Z,89.56
2018-01-04T11:53:25.214Z,89.87
2018-01-04T11:55:52.903Z,89.82
2018-01-04T11:58:20.643Z,89.79
2018-01-04T12:00:48.363Z,89.59
2018-01-04T12:03:16.140Z,89.57
2018-01-04T12:05:43.859Z,89.82
2018-01-04T12:08:11.644Z,90.44
2018-01-04T12:10:39.407Z,90.44
2018-01-04T12:13:07.154Z,90.57
2018-01-04T12:15:34.872Z,90.66
2018-01-04T12:18:02.572Z,90.77
2018-01-04T12:20:30.313Z,91.03
2018-01-04T12:22:58.064Z,90.77
2018-01-04T12:25:25.796Z,90.17
2018-01-04T12:27:53.494Z,89.94
2018-01-04T12:30:21.402Z,90.82
2018-01-04T12:32:49.133Z,90.91
2018-01-04T12:35:16.904Z,90.08
2018-01-04T12:37:44.607Z,89.74
2018-01-04T12:40:12.364Z,89.24
2018-01-04T12:42:40.062Z,88.81
2018-01-04T12:45:07.825Z,89.04
2018-01-04T12:47:35.566Z,90.77
2018-01-04T12:50:03.341Z,91.32
2018-01-04T12:52:31.111Z,91.01
2018-01-04T12:54:58.890Z,90.64
2018-01-04T12:57:26.704Z,91.20
2018-01-04T12:59:54.565Z,91.41
2018-01-04T13:02:22.344Z,91.51
2018-01-04T13:04:50.042Z,91.51
2018-01-04T13:07:17.840Z,92.58
2018-01-04T13:09:45.595Z,92.41
2018-01-04T13:12:13.481Z,92.60
2018-01-04T13:14:41.168Z,92.37
2018-01-04T13:17:08.934Z,91.41
2018-01-04T13:19:36.658Z,91.04
2018-01-04T13:22:04.422Z,91.07
2018-01-04T13:24:32.596Z,91.10
2018-01-04T13:27:00.344Z,91.02
2018-01-04T13:29:28.109Z,91.08
2018-01-04T13:31:55.792Z,91.04
2018-01-04T13:34:23.547Z,91.73
2018-01-04T13:36:51.242Z,91.86
2018-01-04T13:39:19.689Z,92.02
2018-01-04T13:41:48.655Z,92.12
2018-01-04T13:44:16.397Z,91.72
2018-01-04T13:46:44.143Z,91.14
2018-01-04T13:49:11.848Z,90.65
2018-01-04T13:51:39.560Z,90.86
2018-01-04T13:54:07.304Z,90.80
2018-01-04T13:56:34.994Z,90.56
2018-01-04T13:59:02.776Z,90.56
2018-01-04T14:01:30.466Z,90.41
2018-01-04T14:03:58.227Z,90.30
2018-01-04T14:06:26.009Z,90.25
2018-01-04T14:08:53.801Z,90.53
2018-01-04T14:11:21.495Z,90.65
2018-01-04T14:13:49.204Z,90.72
2018-01-04T14:16:16.991Z,90.89
2018-01-04T14:18:44.702Z,91.46
2018-01-04T14:21:12.477Z,91.21
2018-01-04T14:23:40.294Z,91.62
2018-01-04T14:26:08.062Z,91.89
2018-01-04T14:28:35.815Z,91.33
2018-01-04T14:31:03.579Z,91.01
2018-01-04T14:33:31.309Z,91.23
2018-01-04T14:35:59.057Z,91.37
2018-01-04T14:38:26.776Z,90.96
2018-01-04T14:40:54.484Z,91.42
2018-01-04T14:43:22.305Z,91.18
2018-01-04T14:45:50.140Z,90.76
2018-01-04T14:48:17.939Z,91.15
2018-01-04T14:50:45.678Z,91.16
2018-01-04T14:53:13.544Z,91.00
2018-01-04T14:55:41.402Z,90.72
2018-01-04T14:58:09.226Z,91.26
2018-01-04T15:00:37.516Z,91.22
2018-01-04T15:03:05.248Z,90.97
2018-01-04T15:05:33.207Z,91.22
2018-01-04T15:08:00.925Z,91.65
2018-01-04T15:10:29.939Z,91.68
2018-01-04T15:12:58.789Z,91.41
2018-01-04T15:15:26.571Z,91.40
2018-01-04T15:17:54.354Z,90.91
2018-01-04T15:20:22.379Z,91.42
2018-01-04T15:22:51.321Z,91.72
2018-01-04T15:25:19.276Z,91.53
2018-01-04T15:27:47.125Z,91.76
2018-01-04T15:30:14.900Z,91.95
2018-01-04T15:32:42.973Z,91.98
2018-01-04T15:35:10.832Z,92.10
2018-01-04T15:37:38.824Z,92.22
2018-01-04T15:40:07.349Z,92.31
2018-01-04T15:42:35.364Z,92.07
2018-01-04T15:45:03.325Z,91.72
2018-01-04T15:47:31.138Z,91.58
2018-01-04T15:49:59.990Z,91.69
2018-01-04T15:52:29.617Z,91.38
2018-01-04T15:54:57.536Z,90.98
2018-01-04T15:57:25.452Z,90.94
2018-01-04T15:59:53.240Z,91.14
2018-01-04T16:02:21.203Z,91.59
2018-01-04T16:04:49.003Z,91.44
2018-01-04T16:07:16.988Z,91.52
2018-01-04T16:09:44.817Z,92.21
2018-01-04T16:12:12.591Z,93.10
2018-01-04T16:14:40.449Z,93.19
2018-01-04T16:17:08.210Z,92.50
2018-01-04T16:19:35.992Z,92.03
2018-01-04T16:22:03.751Z,92.29
2018-01-04T16:24:31.491Z,92.10
2018-01-04T16:26:59.307Z,93.09
2018-01-04T16:29:27.161Z,93.30
2018-01-04T16:31:54.960Z,93.74
2018-01-04T16:34:22.745Z,93.08
2018-01-04T16:36:50.507Z,93.58
2018-01-04T16:39:18.291Z,93.25
2018-01-04T16:41:46.106Z,92.51
2018-01-04T16:44:14.424Z,92.36
2018-01-04T16:46:42.148Z,92.20
2018-01-04T16:49:09.908Z,92.43
2018-01-04T16:51:38.362Z,92.62
2018-01-04T16:54:06.112Z,92.09
2018-01-04T16:56:34.535Z,92.71
2018-01-04T16:59:02.378Z,93.42
2018-01-04T17:01:30.222Z,93.41
2018-01-04T17:03:58.135Z,93.30
2018-01-04T17:06:25.952Z,93.02
2018-01-04T17:08:54.497Z,93.21
2018-01-04T17:11:22.660Z,92.87
2018-01-04T17:13:51.676Z,92.65
2018-01-04T17:16:19.428Z,92.51
2018-01-04T17:18:47.218Z,92.59
2018-01-04T17:21:15.116Z,92.98
2018-01-04T17:23:43.058Z,93.08
2018-01-04T17:26:10.812Z,93.10
2018-01-04T17:28:38.562Z,93.70
2018-01-04T17:31:06.390Z,93.09
2018-01-04T17:33:34.129Z,92.88
2018-01-04T17:36:02.017Z,92.44
2018-01-04T17:38:29.810Z,92.21
2018-01-04T17:40:57.545Z,92.28
2018-01-04T17:43:25.408Z,92.09
2018-01-04T17:45:53.210Z,92.43
2018-01-04T17:48:20.965Z,92.62
2018-01-04T17:50:48.752Z,92.44
2018-01-04T17:53:16.469Z,92.36
2018-01-04T17:55:44.311Z,92.37
2018-01-04T17:58:12.069Z,92.33
2018-01-04T18:00:40.251Z,92.51
2018-01-04T18:03:07.976Z,92.39
2018-01-04T18:05:35.822Z,92.36
2018-01-04T18:08:04.874Z,92.44
2018-01-04T18:10:32.630Z,92.49
2018-01-04T18:13:01.501Z,92.80
2018-01-04T18:15:29.271Z,93.18
2018-01-04T18:17:57.069Z,93.01
2018-01-04T18:20:24.805Z,92.45
2018-01-04T18:22:52.592Z,92.22
2018-01-04T18:25:20.314Z,92.53
2018-01-04T18:27:48.124Z,92.96
2018-01-04T18:30:15.881Z,92.58
2018-01-04T18:32:43.887Z,93.23
2018-01-04T18:35:11.693Z,93.84
2018-01-04T18:37:39.483Z,94.28
2018-01-04T18:40:07.257Z,94.51
2018-01-04T18:42:35.091Z,94.39
2018-01-04T18:45:02.941Z,93.93
2018-01-04T18:47:30.680Z,93.74
2018-01-04T18:49:58.567Z,93.59
2018-01-04T18:52:26.456Z,93.50
2018-01-04T18:54:54.254Z,93.46
2018-01-04T18:57:22.049Z,93.37
2018-01-04T18:59:49.895Z,93.30
2018-01-04T19:02:17.646Z,93.20
2018-01-04T19:04:45.394Z,93.36
2018-01-04T19:07:13.228Z,93.21
2018-01-04T19:09:41.149Z,92.95
2018-01-04T19:12:09.173Z,92.94
2018-01-04T19:14:36.951Z,93.75
2018-01-04T19:17:04.726Z,94.61
2018-01-04T19:19:32.510Z,94.66
2018-01-04T19:22:00.284Z,94.19
2018-01-04T19:24:28.079Z,93.68
2018-01-04T19:26:55.905Z,93.46
2018-01-04T19:29:23.837Z,93.12
2018-01-04T19:31:51.686Z,93.08
2018-01-04T19:34:19.416Z,92.95
2018-01-04T19:36:47.231Z,93.26
2018-01-04T19:39:16.534Z,92.99
2018-01-04T19:41:44.205Z,92.91
2018-01-04T19:44:12.040Z,92.80
2018-01-04T19:46:41.104Z,92.83
2018-01-04T19:49:09.158Z,92.80
2018-01-04T19:51:37.321Z,93.48
2018-01-04T19:54:05.253Z,94.19
2018-01-04T19:56:33.103Z,94.27
2018-01-04T19:59:01.037Z,93.97
2018-01-04T20:01:30.167Z,93.71
2018-01-04T20:03:59.589Z,93.38
2018-01-04T20:06:27.788Z,93.04
2018-01-04T20:08:56.205Z,92.64
2018-01-04T20:11:27.012Z,92.45
2018-01-04T20:13:54.823Z,92.68
2018-01-04T20:16:23.023Z,93.44
2018-01-04T20:18:50.936Z,94.20
2018-01-04T20:21:18.759Z,94.29
2018-01-04T20:23:46.751Z,94.62
2018-01-04T20:26:14.649Z,95.01
2018-01-04T20:28:42.483Z,94.63
2018-01-04T20:31:10.398Z,94.24
2018-01-04T20:33:39.882Z,94.36
2018-01-04T20:36:07.967Z,94.40
2018-01-04T20:38:35.678Z,94.24
2018-01-04T20:41:03.597Z,94.02
2018-01-04T20:43:31.409Z,93.83
2018-01-04T20:45:59.192Z,93.77
2018-01-04T20:48:27.076Z,94.35
2018-01-04T20:50:55.161Z,94.74
2018-01-04T20:53:23.944Z,94.58
2018-01-04T20:55:51.805Z,94.32
2018-01-04T20:58:20.186Z,94.71
2018-01-04T21:00:48.154Z,94.28
2018-01-04T21:03:16.201Z,93.58
2018-01-04T21:05:44.209Z,93.62
2018-01-04T21:08:12.019Z,93.69
2018-01-04T21:10:39.824Z,93.78
2018-01-04T21:13:07.861Z,94.64
2018-01-04T21:15:35.639Z,94.75
2018-01-04T21:18:04.306Z,94.27
2018-01-04T21:20:32.179Z,94.19
2018-01-04T21:23:01.559Z,93.91
2018-01-04T21:25:29.264Z,93.75
2018-01-04T21:27:57.172Z,93.71
2018-01-04T21:30:24.953Z,93.61
2018-01-04T21:32:52.775Z,93.47
2018-01-04T21:35:20.647Z,93.36
2018-01-04T21:37:48.457Z,93.92
2018-01-04T21:40:16.154Z,93.80
2018-01-04T21:42:43.936Z,93.85
2018-01-04T21:45:11.647Z,93.94
2018-01-04T21:47:39.358Z,94.00
2018-01-04T21:50:07.316Z,93.78
2018-01-04T21:52:35.459Z,94.40
2018-01-04T21:55:03.275Z,94.63
2018-01-04T21:57:31.038Z,94.39
2018-01-04T21:59:58.912Z,93.98
2018-01-04T22:02:27.585Z,93.82
2018-01-04T22:04:55.341Z,94.22
2018-01-04T22:07:23.205Z,93.90
2018-01-04T22:09:50.948Z,93.58
2018-01-04T22:12:18.760Z,94.21
2018-01-04T22:14:46.557Z,93.85
2018-01-04T22:17:15.167Z,93.64
2018-01-04T22:19:42.882Z,93.59
2018-01-04T22:22:10.670Z,93.55
2018-01-04T22:24:38.688Z,93.47
2018-01-04T22:27:06.376Z,93.34
2018-01-04T22:29:35.737Z,93.96
2018-01-04T22:32:03.787Z,94.39
2018-01-04T22:34:31.505Z,93.91
2018-01-04T22:36:59.384Z,93.64
2018-01-04T22:39:27.191Z,94.45
2018-01-04T22:41:54.937Z,94.84
2018-01-04T22:44:22.686Z,94.80
2018-01-04T22:46:50.466Z,94.53
2018-01-04T22:49:18.189Z,94.68
2018-01-04T22:51:45.954Z,95.00
2018-01-04T22:54:13.758Z,94.81
2018-01-04T22:56:41.456Z,94.63
2018-01-04T22:59:09.149Z,94.35
2018-01-04T23:01:36.925Z,94.19
2018-01-04T23:04:04.750Z,94.46
2018-01-04T23:06:33.579Z,94.62
2018-01-04T23:09:02.058Z,94.41
2018-01-04T23:11:29.814Z,94.62
2018-01-04T23:13:57.552Z,94.78
2018-01-04T23:16:25.260Z,94.44
2018-01-04T23:18:53.027Z,93.99
2018-01-04T23:21:20.790Z,94.42
2018-01-04T23:23:48.566Z,94.35
2018-01-04T23:26:16.317Z,94.32
2018-01-04T23:28:44.005Z,94.25
2018-01-04T23:31:11.774Z,94.17
2018-01-04T23:33:39.541Z,94.20
2018-01-04T23:36:07.220Z,93.83
2018-01-04T23:38:35.013Z,93.87
2018-01-04T23:41:02.717Z,93.94
2018-01-04T23:43:30.426Z,93.91
2018-01-04T23:45:58.300Z,93.85
2018-01-04T23:48:26.012Z,93.77
2018-01-04T23:50:53.747Z,93.55
2018-01-04T23:53:21.571Z,93.32
2018-01-04T23:55:49.347Z,93.08
2018-01-04T23:58:17.107Z,93.16
